sensor_id;sensor_type;location;lat;lon;timestamp;pressure;altitude;pressure_sealevel;temperature;humidity
75788;BME280;64406;50.024;14.492;2023-05-14T00:00:23;98321.25;;;9.85;73.14
75788;BME280;64406;50.024;14.492;2023-05-14T00:03:08;98325.81;;;9.79;72.87
75788;BME280;64406;50.024;14.492;2023-05-14T00:05:34;98319.06;;;9.81;73.06
75788;BME280;64406;50.024;14.492;2023-05-14T00:08:00;98317.75;;;9.79;73.22
75788;BME280;64406;50.024;14.492;2023-05-14T00:10:26;98323.66;;;9.76;73.23
75788;BME280;64406;50.024;14.492;2023-05-14T00:12:51;98312.38;;;9.74;73.70
75788;BME280;64406;50.024;14.492;2023-05-14T00:15:17;98313.16;;;9.74;73.59
75788;BME280;64406;50.024;14.492;2023-05-14T00:17:43;98312.63;;;9.67;73.83
75788;BME280;64406;50.024;14.492;2023-05-14T00:20:09;98308.91;;;9.58;73.60
75788;BME280;64406;50.024;14.492;2023-05-14T00:22:37;98303.50;;;9.53;74.18
75788;BME280;64406;50.024;14.492;2023-05-14T00:25:06;98300.81;;;9.43;74.54
75788;BME280;64406;50.024;14.492;2023-05-14T00:27:32;98297.06;;;9.39;74.95
75788;BME280;64406;50.024;14.492;2023-05-14T00:29:58;98297.88;;;9.44;75.01
75788;BME280;64406;50.024;14.492;2023-05-14T00:32:24;98291.41;;;9.50;74.67
75788;BME280;64406;50.024;14.492;2023-05-14T00:34:50;98297.06;;;9.64;74.11
75788;BME280;64406;50.024;14.492;2023-05-14T00:37:15;98293.81;;;9.77;73.27
75788;BME280;64406;50.024;14.492;2023-05-14T00:39:41;98297.00;;;9.95;73.14
75788;BME280;64406;50.024;14.492;2023-05-14T00:42:07;98283.25;;;10.01;72.65
75788;BME280;64406;50.024;14.492;2023-05-14T00:44:32;98289.94;;;10.09;72.16
75788;BME280;64406;50.024;14.492;2023-05-14T00:46:58;98293.72;;;10.23;72.17
75788;BME280;64406;50.024;14.492;2023-05-14T00:49:25;98288.56;;;10.22;72.03
75788;BME280;64406;50.024;14.492;2023-05-14T00:51:51;98289.66;;;10.31;71.65
75788;BME280;64406;50.024;14.492;2023-05-14T00:54:18;98294.72;;;10.43;71.39
75788;BME280;64406;50.024;14.492;2023-05-14T00:56:44;98290.72;;;10.35;71.04
75788;BME280;64406;50.024;14.492;2023-05-14T00:59:12;98285.09;;;10.31;71.69
75788;BME280;64406;50.024;14.492;2023-05-14T01:01:38;98292.34;;;10.31;71.36
75788;BME280;64406;50.024;14.492;2023-05-14T01:04:05;98296.38;;;10.28;71.77
75788;BME280;64406;50.024;14.492;2023-05-14T01:09:49;98293.16;;;10.21;71.62
75788;BME280;64406;50.024;14.492;2023-05-14T01:15:11;98288.06;;;10.20;72.25
75788;BME280;64406;50.024;14.492;2023-05-14T01:17:50;98284.28;;;10.21;71.55
75788;BME280;64406;50.024;14.492;2023-05-14T01:20:18;98277.56;;;10.18;71.56
75788;BME280;64406;50.024;14.492;2023-05-14T01:22:43;98269.47;;;10.28;71.21
75788;BME280;64406;50.024;14.492;2023-05-14T01:25:09;98273.22;;;10.22;71.92
75788;BME280;64406;50.024;14.492;2023-05-14T01:27:41;98284.84;;;10.18;71.30
75788;BME280;64406;50.024;14.492;2023-05-14T01:32:47;98285.94;;;10.12;72.35
75788;BME280;64406;50.024;14.492;2023-05-14T01:35:13;98285.41;;;10.04;72.76
75788;BME280;64406;50.024;14.492;2023-05-14T01:37:40;98286.75;;;9.97;72.75
75788;BME280;64406;50.024;14.492;2023-05-14T01:40:07;98286.50;;;9.98;72.77
75788;BME280;64406;50.024;14.492;2023-05-14T01:42:34;98281.66;;;9.90;73.43
75788;BME280;64406;50.024;14.492;2023-05-14T01:45:00;98273.06;;;9.83;73.57
75788;BME280;64406;50.024;14.492;2023-05-14T01:47:26;98270.94;;;9.85;74.19
75788;BME280;64406;50.024;14.492;2023-05-14T01:49:52;98267.16;;;9.81;74.04
75788;BME280;64406;50.024;14.492;2023-05-14T01:52:18;98261.25;;;9.79;73.93
75788;BME280;64406;50.024;14.492;2023-05-14T01:54:46;98264.75;;;9.74;74.13
75788;BME280;64406;50.024;14.492;2023-05-14T01:57:12;98251.84;;;9.71;74.43
75788;BME280;64406;50.024;14.492;2023-05-14T01:59:37;98257.75;;;9.73;74.70
75788;BME280;64406;50.024;14.492;2023-05-14T02:02:03;98258.00;;;9.82;74.26
75788;BME280;64406;50.024;14.492;2023-05-14T02:04:29;98251.81;;;9.81;74.30
75788;BME280;64406;50.024;14.492;2023-05-14T02:06:54;98251.00;;;9.86;74.23
75788;BME280;64406;50.024;14.492;2023-05-14T02:09:20;98258.00;;;9.82;74.39
75788;BME280;64406;50.024;14.492;2023-05-14T02:11:45;98264.47;;;9.81;74.42
75788;BME280;64406;50.024;14.492;2023-05-14T02:14:11;98263.13;;;9.78;74.74
75788;BME280;64406;50.024;14.492;2023-05-14T02:16:37;98267.72;;;9.78;75.04
75788;BME280;64406;50.024;14.492;2023-05-14T02:19:02;98260.69;;;9.77;74.50
75788;BME280;64406;50.024;14.492;2023-05-14T02:21:28;98261.50;;;9.82;74.44
75788;BME280;64406;50.024;14.492;2023-05-14T02:23:54;98259.06;;;9.91;74.62
75788;BME280;64406;50.024;14.492;2023-05-14T02:26:20;98270.31;;;10.03;73.94
75788;BME280;64406;50.024;14.492;2023-05-14T02:28:46;98247.72;;;10.04;73.54
75788;BME280;64406;50.024;14.492;2023-05-14T02:31:11;98252.03;;;10.00;74.13
75788;BME280;64406;50.024;14.492;2023-05-14T02:33:37;98259.31;;;10.00;74.27
75788;BME280;64406;50.024;14.492;2023-05-14T02:36:02;98261.72;;;10.01;74.19
75788;BME280;64406;50.024;14.492;2023-05-14T02:38:28;98243.97;;;10.05;74.14
75788;BME280;64406;50.024;14.492;2023-05-14T02:40:54;98253.06;;;10.15;73.74
75788;BME280;64406;50.024;14.492;2023-05-14T02:43:20;98251.44;;;10.19;73.84
75788;BME280;64406;50.024;14.492;2023-05-14T02:45:46;98252.25;;;10.19;73.67
75788;BME280;64406;50.024;14.492;2023-05-14T02:48:11;98247.13;;;10.23;73.52
75788;BME280;64406;50.024;14.492;2023-05-14T02:50:37;98239.06;;;10.18;73.58
75788;BME280;64406;50.024;14.492;2023-05-14T02:53:03;98241.50;;;10.24;73.68
75788;BME280;64406;50.024;14.492;2023-05-14T02:55:28;98237.72;;;10.30;73.43
75788;BME280;64406;50.024;14.492;2023-05-14T02:57:54;98241.19;;;10.31;73.10
75788;BME280;64406;50.024;14.492;2023-05-14T03:00:21;98231.22;;;10.31;73.17
75788;BME280;64406;50.024;14.492;2023-05-14T03:02:46;98226.94;;;10.30;73.01
75788;BME280;64406;50.024;14.492;2023-05-14T03:05:12;98228.28;;;10.23;73.53
75788;BME280;64406;50.024;14.492;2023-05-14T03:07:38;98231.00;;;10.13;73.90
75788;BME280;64406;50.024;14.492;2023-05-14T03:10:04;98227.50;;;10.17;73.50
75788;BME280;64406;50.024;14.492;2023-05-14T03:12:30;98235.28;;;10.19;73.71
75788;BME280;64406;50.024;14.492;2023-05-14T03:14:55;98224.81;;;10.12;74.05
75788;BME280;64406;50.024;14.492;2023-05-14T03:17:21;98234.75;;;10.17;74.06
75788;BME280;64406;50.024;14.492;2023-05-14T03:19:47;98236.09;;;10.19;74.12
75788;BME280;64406;50.024;14.492;2023-05-14T03:22:13;98245.78;;;10.25;74.17
75788;BME280;64406;50.024;14.492;2023-05-14T03:24:38;98242.56;;;10.23;74.00
75788;BME280;64406;50.024;14.492;2023-05-14T03:27:05;98240.69;;;10.14;74.41
75788;BME280;64406;50.024;14.492;2023-05-14T03:29:30;98239.59;;;10.20;74.10
75788;BME280;64406;50.024;14.492;2023-05-14T03:31:56;98238.25;;;10.27;73.73
75788;BME280;64406;50.024;14.492;2023-05-14T03:34:22;98244.41;;;10.33;73.82
75788;BME280;64406;50.024;14.492;2023-05-14T03:36:48;98235.25;;;10.34;73.89
75788;BME280;64406;50.024;14.492;2023-05-14T03:39:13;98225.28;;;10.34;73.86
75788;BME280;64406;50.024;14.492;2023-05-14T03:41:46;98230.69;;;10.29;74.12
75788;BME280;64406;50.024;14.492;2023-05-14T03:44:11;98228.28;;;10.23;74.36
75788;BME280;64406;50.024;14.492;2023-05-14T03:46:37;98232.59;;;10.19;74.43
75788;BME280;64406;50.024;14.492;2023-05-14T03:49:03;98233.44;;;10.24;74.18
75788;BME280;64406;50.024;14.492;2023-05-14T03:51:29;98232.06;;;10.17;74.38
75788;BME280;64406;50.024;14.492;2023-05-14T03:53:56;98234.75;;;10.17;74.89
75788;BME280;64406;50.024;14.492;2023-05-14T03:56:23;98231.81;;;10.13;74.58
75788;BME280;64406;50.024;14.492;2023-05-14T03:58:49;98226.94;;;10.20;74.73
75788;BME280;64406;50.024;14.492;2023-05-14T04:01:14;98230.44;;;10.21;74.67
75788;BME280;64406;50.024;14.492;2023-05-14T04:03:40;98235.81;;;10.31;74.11
75788;BME280;64406;50.024;14.492;2023-05-14T04:06:06;98228.00;;;10.29;74.61
75788;BME280;64406;50.024;14.492;2023-05-14T04:08:31;98222.88;;;10.33;74.68
75788;BME280;64406;50.024;14.492;2023-05-14T04:10:57;98227.66;;;10.41;74.01
75788;BME280;64406;50.024;14.492;2023-05-14T04:13:22;98220.34;;;10.52;73.92
75788;BME280;64406;50.024;14.492;2023-05-14T04:15:48;98222.47;;;10.55;73.53
75788;BME280;64406;50.024;14.492;2023-05-14T04:18:14;98226.75;;;10.61;73.33
75788;BME280;64406;50.024;14.492;2023-05-14T04:20:40;98224.03;;;10.66;72.64
75788;BME280;64406;50.024;14.492;2023-05-14T04:23:05;98220.25;;;10.67;72.99
75788;BME280;64406;50.024;14.492;2023-05-14T04:25:31;98217.34;;;10.64;73.05
75788;BME280;64406;50.024;14.492;2023-05-14T04:27:56;98221.38;;;10.61;73.49
75788;BME280;64406;50.024;14.492;2023-05-14T04:30:23;98214.63;;;10.64;73.43
75788;BME280;64406;50.024;14.492;2023-05-14T04:32:48;98214.84;;;10.72;73.50
75788;BME280;64406;50.024;14.492;2023-05-14T04:35:14;98216.72;;;10.72;73.11
75788;BME280;64406;50.024;14.492;2023-05-14T04:37:40;98205.94;;;10.77;72.77
75788;BME280;64406;50.024;14.492;2023-05-14T04:40:07;98213.63;;;10.88;72.60
75788;BME280;64406;50.024;14.492;2023-05-14T04:42:35;98217.91;;;10.95;72.71
75788;BME280;64406;50.024;14.492;2023-05-14T04:45:01;98212.28;;;10.91;72.46
75788;BME280;64406;50.024;14.492;2023-05-14T04:47:30;98217.34;;;10.98;72.71
75788;BME280;64406;50.024;14.492;2023-05-14T04:49:55;98212.69;;;11.08;71.76
75788;BME280;64406;50.024;14.492;2023-05-14T04:52:22;98215.34;;;11.13;71.38
75788;BME280;64406;50.024;14.492;2023-05-14T04:54:48;98206.41;;;11.18;71.26
75788;BME280;64406;50.024;14.492;2023-05-14T04:57:14;98209.63;;;11.20;71.26
75788;BME280;64406;50.024;14.492;2023-05-14T04:59:40;98208.75;;;11.30;70.82
75788;BME280;64406;50.024;14.492;2023-05-14T05:02:05;98203.84;;;11.32;71.10
75788;BME280;64406;50.024;14.492;2023-05-14T05:04:31;98204.59;;;11.42;70.96
75788;BME280;64406;50.024;14.492;2023-05-14T05:06:57;98199.75;;;11.39;71.35
75788;BME280;64406;50.024;14.492;2023-05-14T05:09:22;98203.97;;;11.51;70.31
75788;BME280;64406;50.024;14.492;2023-05-14T05:11:48;98202.00;;;11.56;70.34
75788;BME280;64406;50.024;14.492;2023-05-14T05:14:14;98202.19;;;11.65;69.22
75788;BME280;64406;50.024;14.492;2023-05-14T05:16:39;98203.56;;;11.62;69.58
75788;BME280;64406;50.024;14.492;2023-05-14T05:19:05;98210.69;;;11.77;69.77
75788;BME280;64406;50.024;14.492;2023-05-14T05:21:31;98199.38;;;11.75;70.34
75788;BME280;64406;50.024;14.492;2023-05-14T05:23:56;98195.94;;;11.69;69.69
75788;BME280;64406;50.024;14.492;2023-05-14T05:26:24;98199.16;;;11.71;69.97
75788;BME280;64406;50.024;14.492;2023-05-14T05:28:51;98187.69;;;11.85;69.15
75788;BME280;64406;50.024;14.492;2023-05-14T05:31:16;98195.75;;;11.90;69.11
75788;BME280;64406;50.024;14.492;2023-05-14T05:33:42;98198.94;;;11.92;69.29
75788;BME280;64406;50.024;14.492;2023-05-14T05:36:08;98187.91;;;11.88;69.22
75788;BME280;64406;50.024;14.492;2023-05-14T05:38:34;98198.16;;;11.91;69.97
75788;BME280;64406;50.024;14.492;2023-05-14T05:40:59;98196.88;;;11.84;69.50
75788;BME280;64406;50.024;14.492;2023-05-14T05:43:25;98202.59;;;11.82;69.83
75788;BME280;64406;50.024;14.492;2023-05-14T05:45:53;98203.91;;;11.85;69.58
75788;BME280;64406;50.024;14.492;2023-05-14T05:48:19;98199.00;;;11.87;70.73
75788;BME280;64406;50.024;14.492;2023-05-14T05:50:48;98206.44;;;11.71;70.24
75788;BME280;64406;50.024;14.492;2023-05-14T05:53:14;98197.88;;;11.64;70.80
75788;BME280;64406;50.024;14.492;2023-05-14T05:55:41;98197.47;;;11.52;71.61
75788;BME280;64406;50.024;14.492;2023-05-14T05:58:07;98188.09;;;11.44;71.95
75788;BME280;64406;50.024;14.492;2023-05-14T06:00:32;98187.84;;;11.40;71.69
75788;BME280;64406;50.024;14.492;2023-05-14T06:02:58;98187.91;;;11.35;72.63
75788;BME280;64406;50.024;14.492;2023-05-14T06:05:24;98187.34;;;11.38;72.08
75788;BME280;64406;50.024;14.492;2023-05-14T06:07:50;98191.13;;;11.37;71.92
75788;BME280;64406;50.024;14.492;2023-05-14T06:10:18;98190.03;;;11.38;72.13
75788;BME280;64406;50.024;14.492;2023-05-14T06:12:44;98186.88;;;11.31;72.18
75788;BME280;64406;50.024;14.492;2023-05-14T06:15:10;98195.69;;;11.08;72.60
75788;BME280;64406;50.024;14.492;2023-05-14T06:17:37;98186.97;;;11.21;72.97
75788;BME280;64406;50.024;14.492;2023-05-14T06:20:03;98188.78;;;11.31;72.31
75788;BME280;64406;50.024;14.492;2023-05-14T06:22:32;98192.75;;;11.38;72.31
75788;BME280;64406;50.024;14.492;2023-05-14T06:24:59;98190.50;;;11.46;72.21
75788;BME280;64406;50.024;14.492;2023-05-14T06:27:25;98190.25;;;11.71;71.80
75788;BME280;64406;50.024;14.492;2023-05-14T06:29:50;98200.69;;;11.78;71.20
75788;BME280;64406;50.024;14.492;2023-05-14T06:32:16;98202.00;;;11.80;70.94
75788;BME280;64406;50.024;14.492;2023-05-14T06:34:42;98201.75;;;11.82;71.01
75788;BME280;64406;50.024;14.492;2023-05-14T06:37:09;98198.94;;;11.92;70.53
75788;BME280;64406;50.024;14.492;2023-05-14T06:39:37;98200.00;;;11.96;70.09
75788;BME280;64406;50.024;14.492;2023-05-14T06:42:03;98199.09;;;12.01;71.17
75788;BME280;64406;50.024;14.492;2023-05-14T06:44:29;98195.78;;;12.09;70.35
75788;BME280;64406;50.024;14.492;2023-05-14T06:46:54;98188.53;;;12.28;69.23
75788;BME280;64406;50.024;14.492;2023-05-14T06:49:20;98186.72;;;12.42;68.48
75788;BME280;64406;50.024;14.492;2023-05-14T06:51:46;98192.25;;;12.51;67.89
75788;BME280;64406;50.024;14.492;2023-05-14T06:54:12;98191.66;;;12.73;68.20
75788;BME280;64406;50.024;14.492;2023-05-14T06:56:37;98195.16;;;12.92;67.63
75788;BME280;64406;50.024;14.492;2023-05-14T06:59:03;98190.53;;;12.93;66.17
75788;BME280;64406;50.024;14.492;2023-05-14T07:01:29;98177.00;;;13.12;66.22
75788;BME280;64406;50.024;14.492;2023-05-14T07:03:54;98189.38;;;13.31;66.02
75788;BME280;64406;50.024;14.492;2023-05-14T07:06:21;98188.34;;;13.60;64.30
75788;BME280;64406;50.024;14.492;2023-05-14T07:08:47;98191.09;;;13.74;62.49
75788;BME280;64406;50.024;14.492;2023-05-14T07:11:13;98185.44;;;13.84;62.47
75788;BME280;64406;50.024;14.492;2023-05-14T07:13:39;98180.56;;;14.00;61.32
75788;BME280;64406;50.024;14.492;2023-05-14T07:16:06;98181.09;;;14.24;61.51
75788;BME280;64406;50.024;14.492;2023-05-14T07:18:33;98178.00;;;14.17;60.89
75788;BME280;64406;50.024;14.492;2023-05-14T07:20:59;98176.00;;;14.23;60.90
75788;BME280;64406;50.024;14.492;2023-05-14T07:23:24;98165.69;;;14.11;60.05
75788;BME280;64406;50.024;14.492;2023-05-14T07:25:50;98156.34;;;14.03;60.59
75788;BME280;64406;50.024;14.492;2023-05-14T07:28:15;98163.34;;;14.18;60.20
75788;BME280;64406;50.024;14.492;2023-05-14T07:30:41;98163.88;;;14.20;60.72
75788;BME280;64406;50.024;14.492;2023-05-14T07:33:07;98170.66;;;14.31;59.53
75788;BME280;64406;50.024;14.492;2023-05-14T07:35:32;98174.88;;;14.37;59.42
75788;BME280;64406;50.024;14.492;2023-05-14T07:37:58;98170.66;;;14.31;60.12
75788;BME280;64406;50.024;14.492;2023-05-14T07:40:24;98163.91;;;14.42;59.92
75788;BME280;64406;50.024;14.492;2023-05-14T07:42:50;98169.97;;;14.53;60.32
75788;BME280;64406;50.024;14.492;2023-05-14T07:45:15;98154.25;;;14.64;58.66
75788;BME280;64406;50.024;14.492;2023-05-14T07:47:41;98148.81;;;14.64;58.54
75788;BME280;64406;50.024;14.492;2023-05-14T07:50:07;98149.44;;;14.61;59.17
75788;BME280;64406;50.024;14.492;2023-05-14T07:52:33;98145.31;;;14.63;58.92
75788;BME280;64406;50.024;14.492;2023-05-14T07:54:59;98157.56;;;14.61;58.23
75788;BME280;64406;50.024;14.492;2023-05-14T07:57:25;98149.56;;;14.56;57.84
75788;BME280;64406;50.024;14.492;2023-05-14T07:59:52;98157.19;;;14.54;58.03
75788;BME280;64406;50.024;14.492;2023-05-14T08:02:17;98159.59;;;14.78;57.42
75788;BME280;64406;50.024;14.492;2023-05-14T08:04:43;98151.66;;;15.04;56.09
75788;BME280;64406;50.024;14.492;2023-05-14T08:07:09;98149.06;;;14.99;56.30
75788;BME280;64406;50.024;14.492;2023-05-14T08:09:35;98150.78;;;15.17;56.01
75788;BME280;64406;50.024;14.492;2023-05-14T08:12:01;98146.59;;;15.33;55.39
75788;BME280;64406;50.024;14.492;2023-05-14T08:14:27;98146.09;;;15.62;54.94
75788;BME280;64406;50.024;14.492;2023-05-14T08:16:53;98150.47;;;15.81;54.99
75788;BME280;64406;50.024;14.492;2023-05-14T08:19:19;98142.22;;;16.03;55.01
75788;BME280;64406;50.024;14.492;2023-05-14T08:21:44;98140.97;;;16.09;55.01
75788;BME280;64406;50.024;14.492;2023-05-14T08:24:11;98133.03;;;16.39;53.49
75788;BME280;64406;50.024;14.492;2023-05-14T08:26:36;98132.72;;;16.75;51.88
75788;BME280;64406;50.024;14.492;2023-05-14T08:29:03;98130.34;;;16.91;50.99
75788;BME280;64406;50.024;14.492;2023-05-14T08:31:29;98126.25;;;17.23;50.45
75788;BME280;64406;50.024;14.492;2023-05-14T08:33:55;98133.94;;;17.21;49.83
75788;BME280;64406;50.024;14.492;2023-05-14T08:36:20;98122.97;;;17.47;49.60
75788;BME280;64406;50.024;14.492;2023-05-14T08:38:46;98115.19;;;17.75;47.67
75788;BME280;64406;50.024;14.492;2023-05-14T08:41:13;98129.66;;;17.58;48.64
75788;BME280;64406;50.024;14.492;2023-05-14T08:44:02;98115.31;;;18.08;46.70
75788;BME280;64406;50.024;14.492;2023-05-14T08:46:31;98115.19;;;18.04;47.28
75788;BME280;64406;50.024;14.492;2023-05-14T08:51:59;98106.06;;;17.62;48.01
75788;BME280;64406;50.024;14.492;2023-05-14T08:54:25;98097.69;;;17.84;47.13
75788;BME280;64406;50.024;14.492;2023-05-14T08:56:51;98109.41;;;17.67;46.27
75788;BME280;64406;50.024;14.492;2023-05-14T08:59:18;98103.91;;;17.47;47.26
75788;BME280;64406;50.024;14.492;2023-05-14T09:01:46;98098.34;;;17.34;46.64
75788;BME280;64406;50.024;14.492;2023-05-14T09:04:19;98102.44;;;17.49;46.37
75788;BME280;64406;50.024;14.492;2023-05-14T09:06:48;98103.28;;;17.41;47.67
75788;BME280;64406;50.024;14.492;2023-05-14T09:09:14;98094.72;;;17.60;45.71
75788;BME280;64406;50.024;14.492;2023-05-14T09:11:46;98098.53;;;17.76;45.82
75788;BME280;64406;50.024;14.492;2023-05-14T09:14:12;98078.47;;;18.02;45.50
75788;BME280;64406;50.024;14.492;2023-05-14T09:16:38;98079.63;;;18.21;43.86
75788;BME280;64406;50.024;14.492;2023-05-14T09:19:05;98080.47;;;17.54;44.92
75788;BME280;64406;50.024;14.492;2023-05-14T09:21:32;98082.69;;;17.61;46.31
75788;BME280;64406;50.024;14.492;2023-05-14T09:23:58;98068.84;;;17.83;45.83
75788;BME280;64406;50.024;14.492;2023-05-14T09:26:24;98081.41;;;17.97;45.93
75788;BME280;64406;50.024;14.492;2023-05-14T09:28:55;98066.75;;;17.80;45.81
75788;BME280;64406;50.024;14.492;2023-05-14T09:31:21;98074.06;;;18.18;44.08
75788;BME280;64406;50.024;14.492;2023-05-14T09:33:51;98071.41;;;18.30;43.96
75788;BME280;64406;50.024;14.492;2023-05-14T09:36:18;98073.00;;;17.81;44.95
75788;BME280;64406;50.024;14.492;2023-05-14T09:38:44;98067.13;;;17.70;45.06
75788;BME280;64406;50.024;14.492;2023-05-14T09:41:09;98071.16;;;17.93;45.10
75788;BME280;64406;50.024;14.492;2023-05-14T09:43:35;98059.94;;;18.37;44.18
75788;BME280;64406;50.024;14.492;2023-05-14T09:46:01;98056.31;;;17.82;44.31
75788;BME280;64406;50.024;14.492;2023-05-14T09:48:27;98054.06;;;17.84;45.12
75788;BME280;64406;50.024;14.492;2023-05-14T09:50:53;98055.75;;;17.98;44.66
75788;BME280;64406;50.024;14.492;2023-05-14T09:53:18;98048.44;;;17.89;46.06
75788;BME280;64406;50.024;14.492;2023-05-14T09:55:44;98067.00;;;17.96;45.82
75788;BME280;64406;50.024;14.492;2023-05-14T09:58:10;98053.22;;;18.13;45.32
75788;BME280;64406;50.024;14.492;2023-05-14T10:00:38;98048.84;;;18.00;44.67
75788;BME280;64406;50.024;14.492;2023-05-14T10:03:06;98049.34;;;17.93;44.60
75788;BME280;64406;50.024;14.492;2023-05-14T10:05:36;98045.16;;;17.66;46.14
75788;BME280;64406;50.024;14.492;2023-05-14T10:08:06;98051.78;;;17.27;46.38
75788;BME280;64406;50.024;14.492;2023-05-14T10:10:34;98044.03;;;17.38;46.80
75788;BME280;64406;50.024;14.492;2023-05-14T10:13:06;98044.56;;;17.61;45.43
75788;BME280;64406;50.024;14.492;2023-05-14T10:15:37;98039.44;;;17.59;45.07
75788;BME280;64406;50.024;14.492;2023-05-14T10:18:10;98032.81;;;18.19;44.45
75788;BME280;64406;50.024;14.492;2023-05-14T10:20:37;98038.84;;;18.67;43.23
75788;BME280;64406;50.024;14.492;2023-05-14T10:23:05;98028.22;;;18.65;43.62
75788;BME280;64406;50.024;14.492;2023-05-14T10:25:33;98029.94;;;18.37;43.77
75788;BME280;64406;50.024;14.492;2023-05-14T10:27:59;98025.50;;;18.32;44.17
75788;BME280;64406;50.024;14.492;2023-05-14T10:30:26;98032.53;;;18.33;44.29
75788;BME280;64406;50.024;14.492;2023-05-14T10:33:10;98035.75;;;18.68;43.38
75788;BME280;64406;50.024;14.492;2023-05-14T10:38:21;98023.81;;;19.06;42.35
75788;BME280;64406;50.024;14.492;2023-05-14T10:40:47;98032.53;;;18.87;43.87
75788;BME280;64406;50.024;14.492;2023-05-14T10:43:14;98035.84;;;18.93;43.47
75788;BME280;64406;50.024;14.492;2023-05-14T10:45:42;98007.34;;;19.76;41.25
75788;BME280;64406;50.024;14.492;2023-05-14T10:48:09;98013.09;;;19.99;40.06
75788;BME280;64406;50.024;14.492;2023-05-14T10:50:34;98022.03;;;19.59;40.84
75788;BME280;64406;50.024;14.492;2023-05-14T10:53:01;98010.84;;;19.52;41.32
75788;BME280;64406;50.024;14.492;2023-05-14T10:55:26;98018.84;;;19.81;40.81
75788;BME280;64406;50.024;14.492;2023-05-14T10:57:52;98013.50;;;19.36;41.59
75788;BME280;64406;50.024;14.492;2023-05-14T11:00:18;98009.53;;;18.88;42.40
75788;BME280;64406;50.024;14.492;2023-05-14T11:02:44;98011.13;;;18.77;42.76
75788;BME280;64406;50.024;14.492;2023-05-14T11:05:12;97999.22;;;18.61;42.41
75788;BME280;64406;50.024;14.492;2023-05-14T11:07:47;98017.16;;;18.50;42.73
75788;BME280;64406;50.024;14.492;2023-05-14T11:10:16;98006.06;;;18.34;42.82
75788;BME280;64406;50.024;14.492;2023-05-14T11:12:44;97999.91;;;18.25;43.15
75788;BME280;64406;50.024;14.492;2023-05-14T11:15:13;98008.63;;;18.72;42.25
75788;BME280;64406;50.024;14.492;2023-05-14T11:17:41;97992.41;;;19.24;41.96
75788;BME280;64406;50.024;14.492;2023-05-14T11:20:08;97999.25;;;19.43;41.44
75788;BME280;64406;50.024;14.492;2023-05-14T11:22:35;97991.84;;;19.55;39.79
75788;BME280;64406;50.024;14.492;2023-05-14T11:25:01;97993.31;;;19.90;39.64
75788;BME280;64406;50.024;14.492;2023-05-14T11:27:27;97987.69;;;20.26;38.46
75788;BME280;64406;50.024;14.492;2023-05-14T11:29:53;97981.59;;;20.17;38.87
75788;BME280;64406;50.024;14.492;2023-05-14T11:32:20;97983.50;;;20.73;38.52
75788;BME280;64406;50.024;14.492;2023-05-14T11:34:46;97993.66;;;20.72;38.63
75788;BME280;64406;50.024;14.492;2023-05-14T11:37:15;97992.38;;;20.98;38.81
75788;BME280;64406;50.024;14.492;2023-05-14T11:39:49;97990.34;;;21.10;37.99
75788;BME280;64406;50.024;14.492;2023-05-14T11:42:17;97984.34;;;21.21;37.67
75788;BME280;64406;50.024;14.492;2023-05-14T11:44:52;97977.38;;;21.07;36.72
75788;BME280;64406;50.024;14.492;2023-05-14T11:47:20;97988.22;;;21.04;36.39
75788;BME280;64406;50.024;14.492;2023-05-14T11:49:46;97978.88;;;20.89;36.93
75788;BME280;64406;50.024;14.492;2023-05-14T11:52:15;97981.16;;;20.87;37.54
75788;BME280;64406;50.024;14.492;2023-05-14T11:54:44;97970.53;;;20.70;36.68
75788;BME280;64406;50.024;14.492;2023-05-14T11:57:11;97974.63;;;21.23;36.01
75788;BME280;64406;50.024;14.492;2023-05-14T11:59:38;97972.59;;;21.36;37.03
75788;BME280;64406;50.024;14.492;2023-05-14T12:02:09;97966.59;;;21.30;37.42
75788;BME280;64406;50.024;14.492;2023-05-14T12:04:35;97951.28;;;21.80;36.05
75788;BME280;64406;50.024;14.492;2023-05-14T12:07:07;97954.66;;;21.38;36.40
75788;BME280;64406;50.024;14.492;2023-05-14T12:09:36;97952.44;;;20.65;37.02
75788;BME280;64406;50.024;14.492;2023-05-14T12:12:09;97945.44;;;20.24;37.88
75788;BME280;64406;50.024;14.492;2023-05-14T12:14:37;97951.53;;;20.33;38.62
75788;BME280;64406;50.024;14.492;2023-05-14T12:17:15;97951.28;;;20.66;38.04
75788;BME280;64406;50.024;14.492;2023-05-14T12:19:42;97946.88;;;20.61;36.36
75788;BME280;64406;50.024;14.492;2023-05-14T12:22:10;97945.44;;;20.52;35.18
75788;BME280;64406;50.024;14.492;2023-05-14T12:24:35;97940.78;;;21.15;34.93
75788;BME280;64406;50.024;14.492;2023-05-14T12:27:02;97935.91;;;21.25;33.84
75788;BME280;64406;50.024;14.492;2023-05-14T12:29:28;97930.19;;;21.30;33.89
75788;BME280;64406;50.024;14.492;2023-05-14T12:31:56;97940.25;;;21.10;34.76
75788;BME280;64406;50.024;14.492;2023-05-14T12:34:23;97931.06;;;21.88;32.61
75788;BME280;64406;50.024;14.492;2023-05-14T12:36:49;97932.13;;;22.19;32.48
75788;BME280;64406;50.024;14.492;2023-05-14T12:39:19;97926.69;;;23.37;31.25
75788;BME280;64406;50.024;14.492;2023-05-14T12:41:45;97921.03;;;23.79;29.76
75788;BME280;64406;50.024;14.492;2023-05-14T12:44:11;97919.97;;;24.21;30.11
75788;BME280;64406;50.024;14.492;2023-05-14T12:46:36;97923.16;;;23.37;30.28
75788;BME280;64406;50.024;14.492;2023-05-14T12:49:02;97921.88;;;23.57;30.88
75788;BME280;64406;50.024;14.492;2023-05-14T12:51:28;97923.13;;;23.33;31.11
75788;BME280;64406;50.024;14.492;2023-05-14T12:53:54;97903.75;;;23.52;31.37
75788;BME280;64406;50.024;14.492;2023-05-14T12:56:20;97901.84;;;23.56;31.36
75788;BME280;64406;50.024;14.492;2023-05-14T12:58:46;97904.63;;;26.44;27.56
75788;BME280;64406;50.024;14.492;2023-05-14T13:01:12;97905.78;;;27.71;24.76